sensor_id;sensor_type;location;lat;lon;timestamp;P1;durP1;ratioP1;P2;durP2;ratioP2
68108;SDS011;54893;49.864;19.084;2024-01-11T00:01:44;133.33;;;47.67;;
68108;SDS011;54893;49.864;19.084;2024-01-11T00:06:46;152.87;;;53.70;;
68108;SDS011;54893;49.864;19.084;2024-01-11T00:11:46;142.20;;;50.80;;
68108;SDS011;54893;49.864;19.084;2024-01-11T00:16:47;115.90;;;39.13;;
68108;SDS011;54893;49.864;19.084;2024-01-11T00:21:47;153.43;;;53.07;;
68108;SDS011;54893;49.864;19.084;2024-01-11T00:26:47;146.47;;;53.90;;
68108;SDS011;54893;49.864;19.084;2024-01-11T00:31:48;159.13;;;56.70;;
68108;SDS011;54893;49.864;19.084;2024-01-11T00:36:48;153.67;;;51.40;;
68108;SDS011;54893;49.864;19.084;2024-01-11T00:41:48;190.63;;;65.77;;
68108;SDS011;54893;49.864;19.084;2024-01-11T00:46:49;205.33;;;72.73;;
68108;SDS011;54893;49.864;19.084;2024-01-11T00:51:49;217.90;;;81.10;;
68108;SDS011;54893;49.864;19.084;2024-01-11T00:56:50;205.73;;;75.97;;
68108;SDS011;54893;49.864;19.084;2024-01-11T01:01:50;182.07;;;67.10;;
68108;SDS011;54893;49.864;19.084;2024-01-11T01:06:50;190.97;;;71.17;;
68108;SDS011;54893;49.864;19.084;2024-01-11T01:11:51;175.80;;;60.60;;
68108;SDS011;54893;49.864;19.084;2024-01-11T01:16:51;177.63;;;64.47;;
68108;SDS011;54893;49.864;19.084;2024-01-11T01:21:52;131.87;;;45.37;;
68108;SDS011;54893;49.864;19.084;2024-01-11T01:26:52;132.10;;;44.47;;
68108;SDS011;54893;49.864;19.084;2024-01-11T01:31:52;128.57;;;44.40;;
68108;SDS011;54893;49.864;19.084;2024-01-11T01:36:53;130.63;;;44.10;;
68108;SDS011;54893;49.864;19.084;2024-01-11T01:41:53;117.77;;;38.37;;
68108;SDS011;54893;49.864;19.084;2024-01-11T01:46:53;143.20;;;49.80;;
68108;SDS011;54893;49.864;19.084;2024-01-11T01:51:54;96.93;;;32.20;;
68108;SDS011;54893;49.864;19.084;2024-01-11T01:56:55;128.35;;;42.72;;
68108;SDS011;54893;49.864;19.084;2024-01-11T02:01:56;162.63;;;58.87;;
68108;SDS011;54893;49.864;19.084;2024-01-11T02:06:56;130.73;;;44.33;;
68108;SDS011;54893;49.864;19.084;2024-01-11T02:11:58;154.25;;;52.55;;
68108;SDS011;54893;49.864;19.084;2024-01-11T02:17:00;144.57;;;47.83;;
68108;SDS011;54893;49.864;19.084;2024-01-11T02:22:05;149.80;;;54.20;;
68108;SDS011;54893;49.864;19.084;2024-01-11T02:27:10;181.18;;;62.97;;
68108;SDS011;54893;49.864;19.084;2024-01-11T02:32:11;137.77;;;49.33;;
68108;SDS011;54893;49.864;19.084;2024-01-11T02:37:12;159.73;;;55.27;;
68108;SDS011;54893;49.864;19.084;2024-01-11T02:42:12;134.50;;;43.75;;
68108;SDS011;54893;49.864;19.084;2024-01-11T02:47:13;145.20;;;48.23;;
68108;SDS011;54893;49.864;19.084;2024-01-11T02:52:14;163.40;;;57.80;;
68108;SDS011;54893;49.864;19.084;2024-01-11T02:57:14;147.23;;;49.67;;
68108;SDS011;54893;49.864;19.084;2024-01-11T03:02:14;167.03;;;57.80;;
68108;SDS011;54893;49.864;19.084;2024-01-11T03:07:15;128.10;;;44.10;;
68108;SDS011;54893;49.864;19.084;2024-01-11T03:12:15;119.80;;;39.70;;
68108;SDS011;54893;49.864;19.084;2024-01-11T03:17:15;152.93;;;51.77;;
68108;SDS011;54893;49.864;19.084;2024-01-11T03:22:16;115.10;;;40.27;;
68108;SDS011;54893;49.864;19.084;2024-01-11T03:27:16;134.30;;;48.47;;
68108;SDS011;54893;49.864;19.084;2024-01-11T03:32:16;146.87;;;50.43;;
68108;SDS011;54893;49.864;19.084;2024-01-11T03:37:17;95.80;;;33.27;;
68108;SDS011;54893;49.864;19.084;2024-01-11T03:42:17;107.20;;;37.60;;
68108;SDS011;54893;49.864;19.084;2024-01-11T03:47:19;80.53;;;29.00;;
68108;SDS011;54893;49.864;19.084;2024-01-11T03:52:19;92.73;;;31.40;;
68108;SDS011;54893;49.864;19.084;2024-01-11T03:57:20;102.32;;;36.35;;
68108;SDS011;54893;49.864;19.084;2024-01-11T04:02:20;93.17;;;34.00;;
68108;SDS011;54893;49.864;19.084;2024-01-11T04:07:21;86.87;;;29.63;;
68108;SDS011;54893;49.864;19.084;2024-01-11T04:12:21;79.93;;;27.90;;
68108;SDS011;54893;49.864;19.084;2024-01-11T04:17:21;80.23;;;27.03;;
68108;SDS011;54893;49.864;19.084;2024-01-11T04:22:22;52.90;;;18.17;;
68108;SDS011;54893;49.864;19.084;2024-01-11T04:27:22;103.33;;;36.77;;
68108;SDS011;54893;49.864;19.084;2024-01-11T04:32:22;93.50;;;31.43;;
68108;SDS011;54893;49.864;19.084;2024-01-11T04:37:23;94.20;;;34.13;;
68108;SDS011;54893;49.864;19.084;2024-01-11T04:42:23;84.20;;;28.03;;
68108;SDS011;54893;49.864;19.084;2024-01-11T04:47:23;84.20;;;29.40;;
68108;SDS011;54893;49.864;19.084;2024-01-11T04:52:24;68.53;;;21.77;;
68108;SDS011;54893;49.864;19.084;2024-01-11T04:57:24;78.97;;;25.60;;
68108;SDS011;54893;49.864;19.084;2024-01-11T05:02:24;69.20;;;21.50;;
68108;SDS011;54893;49.864;19.084;2024-01-11T05:07:26;74.47;;;25.30;;
68108;SDS011;54893;49.864;19.084;2024-01-11T05:12:27;78.57;;;24.30;;
68108;SDS011;54893;49.864;19.084;2024-01-11T05:17:27;60.77;;;20.23;;
68108;SDS011;54893;49.864;19.084;2024-01-11T05:22:28;88.63;;;28.87;;
68108;SDS011;54893;49.864;19.084;2024-01-11T05:27:28;81.30;;;27.70;;
68108;SDS011;54893;49.864;19.084;2024-01-11T05:32:28;82.90;;;27.47;;
68108;SDS011;54893;49.864;19.084;2024-01-11T05:37:29;86.27;;;29.10;;
68108;SDS011;54893;49.864;19.084;2024-01-11T05:42:29;89.40;;;28.40;;
68108;SDS011;54893;49.864;19.084;2024-01-11T05:47:29;114.40;;;44.07;;
68108;SDS011;54893;49.864;19.084;2024-01-11T05:52:30;103.60;;;38.03;;
68108;SDS011;54893;49.864;19.084;2024-01-11T05:57:30;126.90;;;47.37;;
68108;SDS011;54893;49.864;19.084;2024-01-11T06:02:31;140.13;;;51.07;;
68108;SDS011;54893;49.864;19.084;2024-01-11T06:07:31;121.55;;;46.83;;
68108;SDS011;54893;49.864;19.084;2024-01-11T06:12:32;126.63;;;47.20;;
68108;SDS011;54893;49.864;19.084;2024-01-11T06:17:32;131.13;;;47.30;;
68108;SDS011;54893;49.864;19.084;2024-01-11T06:22:32;120.93;;;42.70;;
68108;SDS011;54893;49.864;19.084;2024-01-11T06:27:33;88.00;;;30.13;;
68108;SDS011;54893;49.864;19.084;2024-01-11T06:32:33;132.70;;;46.60;;
68108;SDS011;54893;49.864;19.084;2024-01-11T06:37:33;109.73;;;39.43;;
68108;SDS011;54893;49.864;19.084;2024-01-11T06:42:34;111.43;;;40.60;;
68108;SDS011;54893;49.864;19.084;2024-01-11T06:47:34;117.67;;;44.67;;
68108;SDS011;54893;49.864;19.084;2024-01-11T06:52:35;93.70;;;30.45;;
68108;SDS011;54893;49.864;19.084;2024-01-11T06:57:35;110.47;;;38.83;;
68108;SDS011;54893;49.864;19.084;2024-01-11T07:02:36;125.40;;;45.38;;
68108;SDS011;54893;49.864;19.084;2024-01-11T07:07:36;63.43;;;22.57;;
68108;SDS011;54893;49.864;19.084;2024-01-11T07:12:37;118.57;;;42.10;;
68108;SDS011;54893;49.864;19.084;2024-01-11T07:17:38;131.23;;;52.22;;
68108;SDS011;54893;49.864;19.084;2024-01-11T07:22:39;135.60;;;52.70;;
68108;SDS011;54893;49.864;19.084;2024-01-11T07:27:39;73.00;;;26.90;;
68108;SDS011;54893;49.864;19.084;2024-01-11T07:32:39;99.57;;;37.57;;
68108;SDS011;54893;49.864;19.084;2024-01-11T07:37:40;112.93;;;40.93;;
68108;SDS011;54893;49.864;19.084;2024-01-11T07:42:40;119.70;;;43.77;;
68108;SDS011;54893;49.864;19.084;2024-01-11T07:47:42;122.20;;;43.22;;
68108;SDS011;54893;49.864;19.084;2024-01-11T07:52:42;89.80;;;30.90;;
68108;SDS011;54893;49.864;19.084;2024-01-11T07:57:43;76.60;;;27.47;;
68108;SDS011;54893;49.864;19.084;2024-01-11T08:02:43;102.73;;;39.97;;
68108;SDS011;54893;49.864;19.084;2024-01-11T08:07:44;98.00;;;33.43;;
68108;SDS011;54893;49.864;19.084;2024-01-11T08:12:44;74.20;;;21.10;;
68108;SDS011;54893;49.864;19.084;2024-01-11T08:17:45;57.80;;;18.63;;
68108;SDS011;54893;49.864;19.084;2024-01-11T08:22:45;69.57;;;23.37;;
68108;SDS011;54893;49.864;19.084;2024-01-11T08:27:47;75.07;;;23.95;;
68108;SDS011;54893;49.864;19.084;2024-01-11T08:32:47;77.63;;;29.97;;
68108;SDS011;54893;49.864;19.084;2024-01-11T08:37:48;72.67;;;24.53;;
68108;SDS011;54893;49.864;19.084;2024-01-11T08:42:49;89.70;;;33.78;;
68108;SDS011;54893;49.864;19.084;2024-01-11T08:47:49;71.20;;;25.77;;
68108;SDS011;54893;49.864;19.084;2024-01-11T08:52:51;68.23;;;22.47;;
68108;SDS011;54893;49.864;19.084;2024-01-11T08:57:52;76.90;;;26.00;;
68108;SDS011;54893;49.864;19.084;2024-01-11T09:02:52;75.07;;;23.23;;
68108;SDS011;54893;49.864;19.084;2024-01-11T09:07:52;76.20;;;25.40;;
68108;SDS011;54893;49.864;19.084;2024-01-11T09:12:53;75.07;;;24.50;;
68108;SDS011;54893;49.864;19.084;2024-01-11T09:17:54;54.58;;;19.25;;
68108;SDS011;54893;49.864;19.084;2024-01-11T09:22:54;43.70;;;15.83;;
68108;SDS011;54893;49.864;19.084;2024-01-11T09:27:55;46.40;;;15.13;;
68108;SDS011;54893;49.864;19.084;2024-01-11T09:32:55;50.60;;;17.33;;
68108;SDS011;54893;49.864;19.084;2024-01-11T09:37:56;38.70;;;13.18;;
68108;SDS011;54893;49.864;19.084;2024-01-11T09:42:56;44.22;;;15.05;;
68108;SDS011;54893;49.864;19.084;2024-01-11T09:47:57;46.63;;;17.17;;
68108;SDS011;54893;49.864;19.084;2024-01-11T09:52:58;38.63;;;14.23;;
68108;SDS011;54893;49.864;19.084;2024-01-11T09:57:59;42.30;;;13.38;;
68108;SDS011;54893;49.864;19.084;2024-01-11T10:03:00;40.30;;;14.85;;
68108;SDS011;54893;49.864;19.084;2024-01-11T10:08:01;33.47;;;12.90;;
68108;SDS011;54893;49.864;19.084;2024-01-11T10:13:01;39.33;;;13.53;;
68108;SDS011;54893;49.864;19.084;2024-01-11T10:18:02;46.30;;;15.43;;
68108;SDS011;54893;49.864;19.084;2024-01-11T10:23:03;46.38;;;17.10;;
68108;SDS011;54893;49.864;19.084;2024-01-11T10:28:04;46.63;;;15.15;;
68108;SDS011;54893;49.864;19.084;2024-01-11T10:33:07;31.77;;;9.27;;
68108;SDS011;54893;49.864;19.084;2024-01-11T10:38:08;20.17;;;6.97;;
68108;SDS011;54893;49.864;19.084;2024-01-11T10:49:06;12.05;;;4.30;;
68108;SDS011;54893;49.864;19.084;2024-01-11T10:54:08;15.30;;;4.90;;
68108;SDS011;54893;49.864;19.084;2024-01-11T10:59:10;12.95;;;4.82;;
68108;SDS011;54893;49.864;19.084;2024-01-11T11:04:11;13.97;;;4.10;;
68108;SDS011;54893;49.864;19.084;2024-01-11T11:09:14;28.05;;;9.20;;
68108;SDS011;54893;49.864;19.084;2024-01-11T11:14:17;20.55;;;6.88;;
68108;SDS011;54893;49.864;19.084;2024-01-11T11:19:21;12.80;;;4.53;;
68108;SDS011;54893;49.864;19.084;2024-01-11T11:24:22;12.35;;;4.30;;
68108;SDS011;54893;49.864;19.084;2024-01-11T11:29:22;11.47;;;4.23;;
68108;SDS011;54893;49.864;19.084;2024-01-11T11:34:41;17.57;;;5.20;;
68108;SDS011;54893;49.864;19.084;2024-01-11T11:39:44;11.27;;;4.67;;
68108;SDS011;54893;49.864;19.084;2024-01-11T11:44:52;12.98;;;4.90;;
68108;SDS011;54893;49.864;19.084;2024-01-11T11:49:53;13.68;;;4.35;;
68108;SDS011;54893;49.864;19.084;2024-01-11T11:55:18;16.20;;;5.28;;
68108;SDS011;54893;49.864;19.084;2024-01-11T12:00:22;11.27;;;4.35;;
68108;SDS011;54893;49.864;19.084;2024-01-11T12:05:23;14.27;;;4.50;;
68108;SDS011;54893;49.864;19.084;2024-01-11T12:10:23;10.97;;;3.90;;
68108;SDS011;54893;49.864;19.084;2024-01-11T12:15:26;11.10;;;4.40;;
68108;SDS011;54893;49.864;19.084;2024-01-11T12:20:28;18.38;;;5.90;;
68108;SDS011;54893;49.864;19.084;2024-01-11T12:25:29;15.30;;;5.23;;
68108;SDS011;54893;49.864;19.084;2024-01-11T12:30:29;17.43;;;5.80;;
68108;SDS011;54893;49.864;19.084;2024-01-11T12:35:32;17.52;;;8.02;;
68108;SDS011;54893;49.864;19.084;2024-01-11T12:40:35;20.35;;;7.55;;
68108;SDS011;54893;49.864;19.084;2024-01-11T12:45:40;14.88;;;6.65;;
68108;SDS011;54893;49.864;19.084;2024-01-11T12:50:41;17.52;;;6.25;;
68108;SDS011;54893;49.864;19.084;2024-01-11T12:55:42;18.40;;;5.43;;
68108;SDS011;54893;49.864;19.084;2024-01-11T13:00:43;17.67;;;7.40;;
68108;SDS011;54893;49.864;19.084;2024-01-11T13:05:44;17.73;;;7.67;;
68108;SDS011;54893;49.864;19.084;2024-01-11T13:10:44;19.80;;;7.37;;
68108;SDS011;54893;49.864;19.084;2024-01-11T13:15:47;21.33;;;7.45;;
68108;SDS011;54893;49.864;19.084;2024-01-11T13:20:48;19.67;;;7.65;;
68108;SDS011;54893;49.864;19.084;2024-01-11T13:25:48;18.77;;;7.70;;
68108;SDS011;54893;49.864;19.084;2024-01-11T13:30:49;21.07;;;7.67;;
68108;SDS011;54893;49.864;19.084;2024-01-11T13:35:50;19.10;;;8.60;;
68108;SDS011;54893;49.864;19.084;2024-01-11T13:40:50;18.90;;;9.10;;
68108;SDS011;54893;49.864;19.084;2024-01-11T13:45:50;17.97;;;6.47;;
68108;SDS011;54893;49.864;19.084;2024-01-11T13:50:51;19.00;;;6.87;;
68108;SDS011;54893;49.864;19.084;2024-01-11T13:55:51;28.20;;;9.80;;
68108;SDS011;54893;49.864;19.084;2024-01-11T14:00:52;28.13;;;9.77;;
68108;SDS011;54893;49.864;19.084;2024-01-11T14:05:52;26.53;;;9.03;;
68108;SDS011;54893;49.864;19.084;2024-01-11T14:10:52;23.33;;;9.87;;
68108;SDS011;54893;49.864;19.084;2024-01-11T14:15:56;28.65;;;9.02;;
68108;SDS011;54893;49.864;19.084;2024-01-11T14:20:57;28.70;;;12.97;;
68108;SDS011;54893;49.864;19.084;2024-01-11T14:25:57;27.57;;;10.93;;
68108;SDS011;54893;49.864;19.084;2024-01-11T14:30:58;34.85;;;15.57;;
68108;SDS011;54893;49.864;19.084;2024-01-11T14:35:58;34.73;;;13.13;;
68108;SDS011;54893;49.864;19.084;2024-01-11T14:40:59;35.00;;;16.03;;
68108;SDS011;54893;49.864;19.084;2024-01-11T14:45:59;37.07;;;14.43;;
68108;SDS011;54893;49.864;19.084;2024-01-11T14:51:00;35.37;;;12.83;;
68108;SDS011;54893;49.864;19.084;2024-01-11T14:56:00;37.20;;;17.17;;
68108;SDS011;54893;49.864;19.084;2024-01-11T15:01:00;33.60;;;12.90;;
68108;SDS011;54893;49.864;19.084;2024-01-11T15:06:01;39.57;;;14.73;;
68108;SDS011;54893;49.864;19.084;2024-01-11T15:11:01;48.47;;;19.50;;
68108;SDS011;54893;49.864;19.084;2024-01-11T15:16:03;64.78;;;28.67;;
68108;SDS011;54893;49.864;19.084;2024-01-11T15:21:04;40.27;;;17.53;;
68108;SDS011;54893;49.864;19.084;2024-01-11T15:26:05;33.20;;;12.52;;
68108;SDS011;54893;49.864;19.084;2024-01-11T15:31:05;56.77;;;24.60;;
68108;SDS011;54893;49.864;19.084;2024-01-11T15:36:06;42.10;;;15.67;;
68108;SDS011;54893;49.864;19.084;2024-01-11T15:41:07;60.73;;;26.83;;
68108;SDS011;54893;49.864;19.084;2024-01-11T15:46:07;55.97;;;21.63;;
68108;SDS011;54893;49.864;19.084;2024-01-11T15:51:08;63.03;;;25.33;;
68108;SDS011;54893;49.864;19.084;2024-01-11T15:56:08;67.07;;;28.87;;
68108;SDS011;54893;49.864;19.084;2024-01-11T16:01:09;74.95;;;28.75;;
68108;SDS011;54893;49.864;19.084;2024-01-11T16:06:10;49.13;;;13.93;;
68108;SDS011;54893;49.864;19.084;2024-01-11T16:11:10;72.30;;;31.57;;
68108;SDS011;54893;49.864;19.084;2024-01-11T16:16:11;77.67;;;33.37;;
68108;SDS011;54893;49.864;19.084;2024-01-11T16:21:12;79.38;;;37.47;;
68108;SDS011;54893;49.864;19.084;2024-01-11T16:26:13;85.10;;;32.13;;
68108;SDS011;54893;49.864;19.084;2024-01-11T16:31:17;95.23;;;38.23;;
68108;SDS011;54893;49.864;19.084;2024-01-11T16:36:18;95.50;;;34.97;;
68108;SDS011;54893;49.864;19.084;2024-01-11T16:41:18;93.13;;;35.80;;
68108;SDS011;54893;49.864;19.084;2024-01-11T16:46:19;97.20;;;35.60;;
68108;SDS011;54893;49.864;19.084;2024-01-11T16:51:20;104.33;;;36.83;;
68108;SDS011;54893;49.864;19.084;2024-01-11T16:56:20;102.13;;;34.67;;
68108;SDS011;54893;49.864;19.084;2024-01-11T17:01:20;105.00;;;41.97;;
68108;SDS011;54893;49.864;19.084;2024-01-11T17:06:21;103.47;;;32.97;;
68108;SDS011;54893;49.864;19.084;2024-01-11T17:11:21;90.73;;;32.20;;
68108;SDS011;54893;49.864;19.084;2024-01-11T17:16:22;92.77;;;33.80;;
68108;SDS011;54893;49.864;19.084;2024-01-11T17:21:22;107.00;;;41.28;;
68108;SDS011;54893;49.864;19.084;2024-01-11T17:26:23;125.05;;;46.92;;
68108;SDS011;54893;49.864;19.084;2024-01-11T17:31:23;87.82;;;34.70;;
68108;SDS011;54893;49.864;19.084;2024-01-11T17:36:23;109.63;;;40.10;;
68108;SDS011;54893;49.864;19.084;2024-01-11T17:41:26;113.32;;;45.92;;
68108;SDS011;54893;49.864;19.084;2024-01-11T17:46:27;115.50;;;45.57;;
68108;SDS011;54893;49.864;19.084;2024-01-11T17:51:27;103.57;;;39.63;;
68108;SDS011;54893;49.864;19.084;2024-01-11T17:56:29;114.00;;;44.85;;
68108;SDS011;54893;49.864;19.084;2024-01-11T18:01:29;97.17;;;32.23;;
68108;SDS011;54893;49.864;19.084;2024-01-11T18:06:29;116.27;;;42.33;;
68108;SDS011;54893;49.864;19.084;2024-01-11T18:11:30;117.17;;;46.63;;
68108;SDS011;54893;49.864;19.084;2024-01-11T18:16:30;113.60;;;46.13;;
68108;SDS011;54893;49.864;19.084;2024-01-11T18:21:31;99.47;;;36.37;;
68108;SDS011;54893;49.864;19.084;2024-01-11T18:26:31;111.03;;;46.93;;
68108;SDS011;54893;49.864;19.084;2024-01-11T18:31:32;111.23;;;45.10;;
68108;SDS011;54893;49.864;19.084;2024-01-11T18:36:41;116.40;;;47.60;;
68108;SDS011;54893;49.864;19.084;2024-01-11T18:41:43;110.10;;;42.72;;
68108;SDS011;54893;49.864;19.084;2024-01-11T18:46:44;119.63;;;43.83;;
68108;SDS011;54893;49.864;19.084;2024-01-11T18:51:45;112.93;;;40.27;;
68108;SDS011;54893;49.864;19.084;2024-01-11T18:56:45;107.97;;;40.10;;
68108;SDS011;54893;49.864;19.084;2024-01-11T19:01:46;100.90;;;35.93;;
68108;SDS011;54893;49.864;19.084;2024-01-11T19:06:47;107.85;;;44.25;;
68108;SDS011;54893;49.864;19.084;2024-01-11T19:11:49;103.32;;;40.45;;
68108;SDS011;54893;49.864;19.084;2024-01-11T19:16:51;86.60;;;30.88;;
68108;SDS011;54893;49.864;19.084;2024-01-11T19:21:52;103.10;;;39.63;;
68108;SDS011;54893;49.864;19.084;2024-01-11T19:26:52;108.67;;;39.07;;
68108;SDS011;54893;49.864;19.084;2024-01-11T19:31:52;111.10;;;41.30;;
68108;SDS011;54893;49.864;19.084;2024-01-11T19:36:53;113.13;;;44.60;;
68108;SDS011;54893;49.864;19.084;2024-01-11T19:41:53;103.57;;;36.77;;
68108;SDS011;54893;49.864;19.084;2024-01-11T19:46:54;102.90;;;38.33;;
68108;SDS011;54893;49.864;19.084;2024-01-11T19:51:54;106.03;;;38.30;;
68108;SDS011;54893;49.864;19.084;2024-01-11T19:56:54;114.93;;;44.43;;
68108;SDS011;54893;49.864;19.084;2024-01-11T20:01:55;101.50;;;33.80;;
68108;SDS011;54893;49.864;19.084;2024-01-11T20:06:55;120.90;;;40.87;;
68108;SDS011;54893;49.864;19.084;2024-01-11T20:11:56;106.60;;;37.23;;
68108;SDS011;54893;49.864;19.084;2024-01-11T20:16:56;99.17;;;34.90;;
68108;SDS011;54893;49.864;19.084;2024-01-11T20:21:56;102.40;;;39.50;;
68108;SDS011;54893;49.864;19.084;2024-01-11T20:26:57;101.33;;;36.83;;
68108;SDS011;54893;49.864;19.084;2024-01-11T20:31:58;109.75;;;39.95;;
68108;SDS011;54893;49.864;19.084;2024-01-11T20:36:58;108.20;;;38.03;;
68108;SDS011;54893;49.864;19.084;2024-01-11T20:41:59;104.93;;;36.53;;
68108;SDS011;54893;49.864;19.084;2024-01-11T20:46:59;86.63;;;29.53;;
68108;SDS011;54893;49.864;19.084;2024-01-11T20:51:59;118.83;;;43.03;;
68108;SDS011;54893;49.864;19.084;2024-01-11T20:57:00;108.87;;;39.67;;
68108;SDS011;54893;49.864;19.084;2024-01-11T21:02:01;91.57;;;30.90;;
68108;SDS011;54893;49.864;19.084;2024-01-11T21:07:02;90.27;;;31.30;;
68108;SDS011;54893;49.864;19.084;2024-01-11T21:12:04;110.15;;;39.00;;
68108;SDS011;54893;49.864;19.084;2024-01-11T21:17:05;96.72;;;35.17;;
68108;SDS011;54893;49.864;19.084;2024-01-11T21:22:06;101.43;;;32.57;;
68108;SDS011;54893;49.864;19.084;2024-01-11T21:27:06;92.40;;;31.47;;
68108;SDS011;54893;49.864;19.084;2024-01-11T21:32:07;101.27;;;34.47;;
68108;SDS011;54893;49.864;19.084;2024-01-11T21:37:08;99.17;;;35.27;;
68108;SDS011;54893;49.864;19.084;2024-01-11T21:42:08;109.17;;;41.67;;
68108;SDS011;54893;49.864;19.084;2024-01-11T21:47:09;101.53;;;36.10;;
68108;SDS011;54893;49.864;19.084;2024-01-11T21:52:09;107.27;;;36.27;;
68108;SDS011;54893;49.864;19.084;2024-01-11T21:57:09;104.60;;;34.33;;
68108;SDS011;54893;49.864;19.084;2024-01-11T22:02:10;98.00;;;34.07;;
68108;SDS011;54893;49.864;19.084;2024-01-11T22:07:10;97.63;;;31.17;;
68108;SDS011;54893;49.864;19.084;2024-01-11T22:12:10;93.63;;;31.80;;
68108;SDS011;54893;49.864;19.084;2024-01-11T22:17:11;98.53;;;31.57;;
68108;SDS011;54893;49.864;19.084;2024-01-11T22:22:11;94.07;;;32.63;;
68108;SDS011;54893;49.864;19.084;2024-01-11T22:27:11;85.40;;;29.77;;
68108;SDS011;54893;49.864;19.084;2024-01-11T22:32:12;96.27;;;32.90;;
68108;SDS011;54893;49.864;19.084;2024-01-11T22:37:12;95.50;;;32.70;;
68108;SDS011;54893;49.864;19.084;2024-01-11T22:42:13;96.27;;;32.00;;
68108;SDS011;54893;49.864;19.084;2024-01-11T22:47:13;95.33;;;33.27;;
68108;SDS011;54893;49.864;19.084;2024-01-11T22:52:13;95.87;;;33.23;;
68108;SDS011;54893;49.864;19.084;2024-01-11T22:57:14;89.93;;;29.90;;
68108;SDS011;54893;49.864;19.084;2024-01-11T23:02:15;94.97;;;34.03;;
68108;SDS011;54893;49.864;19.084;2024-01-11T23:07:16;88.40;;;28.57;;
68108;SDS011;54893;49.864;19.084;2024-01-11T23:12:17;77.65;;;26.80;;
68108;SDS011;54893;49.864;19.084;2024-01-11T23:17:17;88.37;;;29.53;;
68108;SDS011;54893;49.864;19.084;2024-01-11T23:22:18;97.77;;;31.77;;
68108;SDS011;54893;49.864;19.084;2024-01-11T23:27:18;74.63;;;22.87;;
68108;SDS011;54893;49.864;19.084;2024-01-11T23:32:19;85.97;;;26.73;;
68108;SDS011;54893;49.864;19.084;2024-01-11T23:37:19;91.53;;;31.60;;
68108;SDS011;54893;49.864;19.084;2024-01-11T23:42:19;85.10;;;28.67;;
68108;SDS011;54893;49.864;19.084;2024-01-11T23:47:20;80.73;;;23.07;;
68108;SDS011;54893;49.864;19.084;2024-01-11T23:52:20;89.37;;;29.10;;
68108;SDS011;54893;49.864;19.084;2024-01-11T23:57:20;84.27;;;26.83;;
